sensor_id;sensor_type;location;lat;lon;timestamp;P1;durP1;ratioP1;P2;durP2;ratioP2
12756;SDS011;31601;48.042;12.240;2023-04-03T00:01:04;18.23;;;13.17;;
12756;SDS011;31601;48.042;12.240;2023-04-03T00:03:30;20.17;;;13.00;;
12756;SDS011;31601;48.042;12.240;2023-04-03T00:05:58;17.43;;;12.67;;
12756;SDS011;31601;48.042;12.240;2023-04-03T00:08:25;18.87;;;13.53;;
12756;SDS011;31601;48.042;12.240;2023-04-03T00:10:52;15.73;;;12.47;;
12756;SDS011;31601;48.042;12.240;2023-04-03T00:13:19;17.70;;;12.93;;
12756;SDS011;31601;48.042;12.240;2023-04-03T00:15:45;16.07;;;12.87;;
12756;SDS011;31601;48.042;12.240;2023-04-03T00:18:12;16.77;;;13.67;;
12756;SDS011;31601;48.042;12.240;2023-04-03T00:20:38;17.20;;;14.03;;
12756;SDS011;31601;48.042;12.240;2023-04-03T00:23:06;17.53;;;13.60;;
12756;SDS011;31601;48.042;12.240;2023-04-03T00:25:33;15.97;;;12.50;;
12756;SDS011;31601;48.042;12.240;2023-04-03T00:27:59;15.90;;;12.93;;
12756;SDS011;31601;48.042;12.240;2023-04-03T00:30:26;18.97;;;13.03;;
12756;SDS011;31601;48.042;12.240;2023-04-03T00:32:53;16.20;;;12.30;;
12756;SDS011;31601;48.042;12.240;2023-04-03T00:35:20;16.27;;;12.87;;
12756;SDS011;31601;48.042;12.240;2023-04-03T00:37:47;17.13;;;12.40;;
12756;SDS011;31601;48.042;12.240;2023-04-03T00:40:18;15.83;;;12.77;;
12756;SDS011;31601;48.042;12.240;2023-04-03T00:42:46;14.73;;;12.57;;
12756;SDS011;31601;48.042;12.240;2023-04-03T00:45:23;16.20;;;12.37;;
12756;SDS011;31601;48.042;12.240;2023-04-03T00:47:58;16.50;;;12.90;;
12756;SDS011;31601;48.042;12.240;2023-04-03T00:50:26;16.63;;;12.07;;
12756;SDS011;31601;48.042;12.240;2023-04-03T00:52:54;15.30;;;12.40;;
12756;SDS011;31601;48.042;12.240;2023-04-03T00:55:23;14.43;;;11.80;;
12756;SDS011;31601;48.042;12.240;2023-04-03T00:57:51;15.40;;;11.63;;
12756;SDS011;31601;48.042;12.240;2023-04-03T01:00:19;17.00;;;12.73;;
12756;SDS011;31601;48.042;12.240;2023-04-03T01:02:47;14.77;;;11.97;;
12756;SDS011;31601;48.042;12.240;2023-04-03T01:05:13;17.17;;;12.70;;
12756;SDS011;31601;48.042;12.240;2023-04-03T01:07:42;17.77;;;13.23;;
12756;SDS011;31601;48.042;12.240;2023-04-03T01:10:11;14.17;;;12.60;;
12756;SDS011;31601;48.042;12.240;2023-04-03T01:12:42;18.20;;;12.90;;
12756;SDS011;31601;48.042;12.240;2023-04-03T01:15:12;16.27;;;13.10;;
12756;SDS011;31601;48.042;12.240;2023-04-03T01:17:40;14.63;;;11.90;;
12756;SDS011;31601;48.042;12.240;2023-04-03T01:23:14;15.83;;;12.37;;
12756;SDS011;31601;48.042;12.240;2023-04-03T01:25:51;15.67;;;12.87;;
12756;SDS011;31601;48.042;12.240;2023-04-03T01:28:22;13.57;;;12.17;;
12756;SDS011;31601;48.042;12.240;2023-04-03T01:30:51;18.97;;;12.10;;
12756;SDS011;31601;48.042;12.240;2023-04-03T01:33:26;16.13;;;11.90;;
12756;SDS011;31601;48.042;12.240;2023-04-03T01:35:52;18.00;;;12.97;;
12756;SDS011;31601;48.042;12.240;2023-04-03T01:38:19;15.77;;;11.93;;
12756;SDS011;31601;48.042;12.240;2023-04-03T01:40:45;15.33;;;12.47;;
12756;SDS011;31601;48.042;12.240;2023-04-03T01:43:12;17.37;;;12.93;;
12756;SDS011;31601;48.042;12.240;2023-04-03T01:45:38;15.60;;;12.07;;
12756;SDS011;31601;48.042;12.240;2023-04-03T01:48:04;15.33;;;12.97;;
12756;SDS011;31601;48.042;12.240;2023-04-03T01:53:00;16.90;;;12.97;;
12756;SDS011;31601;48.042;12.240;2023-04-03T01:55:26;14.80;;;12.07;;
12756;SDS011;31601;48.042;12.240;2023-04-03T01:57:53;14.87;;;12.40;;
12756;SDS011;31601;48.042;12.240;2023-04-03T02:00:19;15.43;;;13.00;;
12756;SDS011;31601;48.042;12.240;2023-04-03T02:02:46;17.67;;;12.97;;
12756;SDS011;31601;48.042;12.240;2023-04-03T02:05:12;15.87;;;12.33;;
12756;SDS011;31601;48.042;12.240;2023-04-03T02:07:40;16.33;;;13.30;;
12756;SDS011;31601;48.042;12.240;2023-04-03T02:10:07;14.87;;;12.43;;
12756;SDS011;31601;48.042;12.240;2023-04-03T02:12:37;14.30;;;11.60;;
12756;SDS011;31601;48.042;12.240;2023-04-03T02:15:04;16.33;;;12.47;;
12756;SDS011;31601;48.042;12.240;2023-04-03T02:17:31;15.17;;;12.50;;
12756;SDS011;31601;48.042;12.240;2023-04-03T02:19:57;15.73;;;12.40;;
12756;SDS011;31601;48.042;12.240;2023-04-03T02:22:24;13.90;;;11.37;;
12756;SDS011;31601;48.042;12.240;2023-04-03T02:24:52;15.47;;;11.43;;
12756;SDS011;31601;48.042;12.240;2023-04-03T02:27:18;15.37;;;11.83;;
12756;SDS011;31601;48.042;12.240;2023-04-03T02:29:44;12.93;;;11.40;;
12756;SDS011;31601;48.042;12.240;2023-04-03T02:32:11;16.17;;;11.73;;
12756;SDS011;31601;48.042;12.240;2023-04-03T02:34:37;10.97;;;9.87;;
12756;SDS011;31601;48.042;12.240;2023-04-03T02:37:04;13.87;;;10.47;;
12756;SDS011;31601;48.042;12.240;2023-04-03T02:39:31;13.67;;;10.20;;
12756;SDS011;31601;48.042;12.240;2023-04-03T02:41:59;12.63;;;10.80;;
12756;SDS011;31601;48.042;12.240;2023-04-03T02:44:25;13.53;;;10.97;;
12756;SDS011;31601;48.042;12.240;2023-04-03T02:46:51;12.60;;;10.37;;
12756;SDS011;31601;48.042;12.240;2023-04-03T02:49:18;11.93;;;10.03;;
12756;SDS011;31601;48.042;12.240;2023-04-03T02:51:45;12.57;;;10.47;;
12756;SDS011;31601;48.042;12.240;2023-04-03T02:54:12;12.77;;;9.80;;
12756;SDS011;31601;48.042;12.240;2023-04-03T02:56:39;12.37;;;9.97;;
12756;SDS011;31601;48.042;12.240;2023-04-03T02:59:06;12.87;;;10.37;;
12756;SDS011;31601;48.042;12.240;2023-04-03T03:01:33;11.90;;;9.80;;
12756;SDS011;31601;48.042;12.240;2023-04-03T03:04:00;12.67;;;10.47;;
12756;SDS011;31601;48.042;12.240;2023-04-03T03:06:27;14.27;;;10.37;;
12756;SDS011;31601;48.042;12.240;2023-04-03T03:08:53;12.93;;;10.37;;
12756;SDS011;31601;48.042;12.240;2023-04-03T03:11:20;12.93;;;10.50;;
12756;SDS011;31601;48.042;12.240;2023-04-03T03:13:46;13.70;;;9.87;;
12756;SDS011;31601;48.042;12.240;2023-04-03T03:16:14;10.93;;;9.60;;
12756;SDS011;31601;48.042;12.240;2023-04-03T03:18:41;11.53;;;10.33;;
12756;SDS011;31601;48.042;12.240;2023-04-03T03:21:08;13.63;;;10.83;;
12756;SDS011;31601;48.042;12.240;2023-04-03T03:23:36;11.40;;;10.20;;
12756;SDS011;31601;48.042;12.240;2023-04-03T03:26:03;12.77;;;10.20;;
12756;SDS011;31601;48.042;12.240;2023-04-03T03:28:31;13.97;;;9.87;;
12756;SDS011;31601;48.042;12.240;2023-04-03T03:30:58;11.17;;;9.80;;
12756;SDS011;31601;48.042;12.240;2023-04-03T03:33:26;10.83;;;9.73;;
12756;SDS011;31601;48.042;12.240;2023-04-03T03:35:53;12.27;;;10.17;;
12756;SDS011;31601;48.042;12.240;2023-04-03T03:38:19;14.57;;;9.83;;
12756;SDS011;31601;48.042;12.240;2023-04-03T03:40:46;11.70;;;9.93;;
12756;SDS011;31601;48.042;12.240;2023-04-03T03:43:13;14.07;;;10.10;;
12756;SDS011;31601;48.042;12.240;2023-04-03T03:45:39;10.40;;;8.97;;
12756;SDS011;31601;48.042;12.240;2023-04-03T03:48:06;12.50;;;9.77;;
12756;SDS011;31601;48.042;12.240;2023-04-03T03:50:34;10.57;;;9.47;;
12756;SDS011;31601;48.042;12.240;2023-04-03T03:53:00;10.17;;;8.73;;
12756;SDS011;31601;48.042;12.240;2023-04-03T03:55:26;11.20;;;9.20;;
12756;SDS011;31601;48.042;12.240;2023-04-03T03:57:53;11.73;;;9.47;;
12756;SDS011;31601;48.042;12.240;2023-04-03T04:00:20;10.73;;;9.03;;
12756;SDS011;31601;48.042;12.240;2023-04-03T04:02:46;10.67;;;9.13;;
12756;SDS011;31601;48.042;12.240;2023-04-03T04:05:13;10.23;;;8.53;;
12756;SDS011;31601;48.042;12.240;2023-04-03T04:07:41;9.53;;;8.43;;
12756;SDS011;31601;48.042;12.240;2023-04-03T04:10:07;10.70;;;8.00;;
12756;SDS011;31601;48.042;12.240;2023-04-03T04:12:34;9.70;;;8.70;;
12756;SDS011;31601;48.042;12.240;2023-04-03T04:15:01;10.57;;;8.03;;
12756;SDS011;31601;48.042;12.240;2023-04-03T04:17:28;9.67;;;8.60;;
12756;SDS011;31601;48.042;12.240;2023-04-03T04:19:54;10.40;;;8.70;;
12756;SDS011;31601;48.042;12.240;2023-04-03T04:22:21;9.60;;;8.60;;
12756;SDS011;31601;48.042;12.240;2023-04-03T04:24:49;12.83;;;8.73;;
12756;SDS011;31601;48.042;12.240;2023-04-03T04:27:15;8.87;;;7.97;;
12756;SDS011;31601;48.042;12.240;2023-04-03T04:29:41;10.90;;;8.17;;
12756;SDS011;31601;48.042;12.240;2023-04-03T04:32:08;10.37;;;8.67;;
12756;SDS011;31601;48.042;12.240;2023-04-03T04:34:35;10.17;;;8.20;;
12756;SDS011;31601;48.042;12.240;2023-04-03T04:37:01;11.23;;;8.00;;
12756;SDS011;31601;48.042;12.240;2023-04-03T04:39:27;9.30;;;7.97;;
12756;SDS011;31601;48.042;12.240;2023-04-03T04:41:55;10.43;;;7.63;;
12756;SDS011;31601;48.042;12.240;2023-04-03T04:44:22;10.97;;;7.63;;
12756;SDS011;31601;48.042;12.240;2023-04-03T04:46:48;9.13;;;7.87;;
12756;SDS011;31601;48.042;12.240;2023-04-03T04:49:14;9.77;;;8.10;;
12756;SDS011;31601;48.042;12.240;2023-04-03T04:51:41;9.17;;;8.00;;
12756;SDS011;31601;48.042;12.240;2023-04-03T04:54:07;9.17;;;8.27;;
12756;SDS011;31601;48.042;12.240;2023-04-03T04:56:34;10.20;;;8.67;;
12756;SDS011;31601;48.042;12.240;2023-04-03T04:59:02;9.53;;;8.40;;
12756;SDS011;31601;48.042;12.240;2023-04-03T05:01:28;11.07;;;7.80;;
12756;SDS011;31601;48.042;12.240;2023-04-03T05:03:54;9.00;;;8.10;;
12756;SDS011;31601;48.042;12.240;2023-04-03T05:06:21;13.70;;;8.90;;
12756;SDS011;31601;48.042;12.240;2023-04-03T05:08:47;10.00;;;7.93;;
12756;SDS011;31601;48.042;12.240;2023-04-03T05:11:14;9.10;;;8.10;;
12756;SDS011;31601;48.042;12.240;2023-04-03T05:13:41;11.10;;;8.40;;
12756;SDS011;31601;48.042;12.240;2023-04-03T05:16:08;10.43;;;8.10;;
12756;SDS011;31601;48.042;12.240;2023-04-03T05:18:36;9.40;;;7.93;;
12756;SDS011;31601;48.042;12.240;2023-04-03T05:21:02;11.07;;;8.17;;
12756;SDS011;31601;48.042;12.240;2023-04-03T05:23:29;10.53;;;8.87;;
12756;SDS011;31601;48.042;12.240;2023-04-03T05:25:56;9.10;;;7.63;;
12756;SDS011;31601;48.042;12.240;2023-04-03T05:28:22;9.27;;;7.93;;
12756;SDS011;31601;48.042;12.240;2023-04-03T05:30:52;12.70;;;8.00;;
12756;SDS011;31601;48.042;12.240;2023-04-03T05:33:21;11.73;;;7.87;;
12756;SDS011;31601;48.042;12.240;2023-04-03T05:35:48;10.10;;;7.47;;
12756;SDS011;31601;48.042;12.240;2023-04-03T05:38:14;7.80;;;7.00;;
12756;SDS011;31601;48.042;12.240;2023-04-03T05:40:41;8.50;;;6.93;;
12756;SDS011;31601;48.042;12.240;2023-04-03T05:43:07;7.33;;;6.20;;
12756;SDS011;31601;48.042;12.240;2023-04-03T05:45:34;7.20;;;6.40;;
12756;SDS011;31601;48.042;12.240;2023-04-03T05:48:01;7.17;;;6.33;;
12756;SDS011;31601;48.042;12.240;2023-04-03T05:50:28;6.33;;;5.63;;
12756;SDS011;31601;48.042;12.240;2023-04-03T05:52:56;6.93;;;6.23;;
12756;SDS011;31601;48.042;12.240;2023-04-03T05:55:23;8.07;;;5.97;;
12756;SDS011;31601;48.042;12.240;2023-04-03T05:57:50;8.50;;;6.00;;
12756;SDS011;31601;48.042;12.240;2023-04-03T06:00:17;6.80;;;5.47;;
12756;SDS011;31601;48.042;12.240;2023-04-03T06:02:44;6.17;;;5.57;;
12756;SDS011;31601;48.042;12.240;2023-04-03T06:05:10;6.60;;;5.80;;
12756;SDS011;31601;48.042;12.240;2023-04-03T06:07:39;6.40;;;5.70;;
12756;SDS011;31601;48.042;12.240;2023-04-03T06:10:06;10.33;;;6.00;;
12756;SDS011;31601;48.042;12.240;2023-04-03T06:12:33;6.70;;;5.67;;
12756;SDS011;31601;48.042;12.240;2023-04-03T06:15:00;7.03;;;4.63;;
12756;SDS011;31601;48.042;12.240;2023-04-03T06:17:27;6.97;;;5.03;;
12756;SDS011;31601;48.042;12.240;2023-04-03T06:19:54;6.93;;;4.90;;
12756;SDS011;31601;48.042;12.240;2023-04-03T06:22:23;6.43;;;4.93;;
12756;SDS011;31601;48.042;12.240;2023-04-03T06:24:51;5.20;;;4.40;;
12756;SDS011;31601;48.042;12.240;2023-04-03T06:27:18;6.57;;;5.03;;
12756;SDS011;31601;48.042;12.240;2023-04-03T06:29:45;6.77;;;4.50;;
12756;SDS011;31601;48.042;12.240;2023-04-03T06:32:11;6.70;;;4.77;;
12756;SDS011;31601;48.042;12.240;2023-04-03T06:34:37;5.30;;;4.17;;
12756;SDS011;31601;48.042;12.240;2023-04-03T06:37:04;4.83;;;4.40;;
12756;SDS011;31601;48.042;12.240;2023-04-03T06:39:31;7.57;;;4.30;;
12756;SDS011;31601;48.042;12.240;2023-04-03T06:41:58;5.03;;;4.33;;
12756;SDS011;31601;48.042;12.240;2023-04-03T06:44:25;5.57;;;4.13;;
12756;SDS011;31601;48.042;12.240;2023-04-03T06:46:51;9.53;;;4.87;;
12756;SDS011;31601;48.042;12.240;2023-04-03T06:49:19;5.10;;;3.80;;
12756;SDS011;31601;48.042;12.240;2023-04-03T06:51:46;5.57;;;3.70;;
12756;SDS011;31601;48.042;12.240;2023-04-03T06:54:12;5.73;;;4.27;;
12756;SDS011;31601;48.042;12.240;2023-04-03T06:56:39;4.93;;;3.87;;
12756;SDS011;31601;48.042;12.240;2023-04-03T06:59:07;4.87;;;3.70;;
12756;SDS011;31601;48.042;12.240;2023-04-03T07:01:35;5.83;;;4.07;;
12756;SDS011;31601;48.042;12.240;2023-04-03T07:04:01;5.37;;;4.00;;
12756;SDS011;31601;48.042;12.240;2023-04-03T07:06:28;3.90;;;3.57;;
12756;SDS011;31601;48.042;12.240;2023-04-03T07:08:56;7.23;;;4.00;;
12756;SDS011;31601;48.042;12.240;2023-04-03T07:11:23;4.60;;;3.70;;
12756;SDS011;31601;48.042;12.240;2023-04-03T07:13:51;6.93;;;4.93;;
12756;SDS011;31601;48.042;12.240;2023-04-03T07:16:19;10.33;;;8.53;;
12756;SDS011;31601;48.042;12.240;2023-04-03T07:18:47;11.83;;;9.87;;
12756;SDS011;31601;48.042;12.240;2023-04-03T07:21:13;12.30;;;11.00;;
12756;SDS011;31601;48.042;12.240;2023-04-03T07:23:40;11.37;;;9.50;;
12756;SDS011;31601;48.042;12.240;2023-04-03T07:26:06;10.23;;;8.40;;
12756;SDS011;31601;48.042;12.240;2023-04-03T07:28:34;9.33;;;7.97;;
12756;SDS011;31601;48.042;12.240;2023-04-03T07:31:02;8.80;;;7.90;;
12756;SDS011;31601;48.042;12.240;2023-04-03T07:33:31;10.47;;;8.70;;
12756;SDS011;31601;48.042;12.240;2023-04-03T07:35:58;14.20;;;9.53;;
12756;SDS011;31601;48.042;12.240;2023-04-03T07:38:25;13.07;;;8.30;;
12756;SDS011;31601;48.042;12.240;2023-04-03T07:40:51;14.37;;;10.03;;
12756;SDS011;31601;48.042;12.240;2023-04-03T07:43:18;12.87;;;8.77;;
12756;SDS011;31601;48.042;12.240;2023-04-03T07:45:46;17.33;;;9.20;;
12756;SDS011;31601;48.042;12.240;2023-04-03T07:48:14;12.53;;;7.40;;
12756;SDS011;31601;48.042;12.240;2023-04-03T07:50:43;11.33;;;7.67;;
12756;SDS011;31601;48.042;12.240;2023-04-03T07:53:10;7.83;;;6.03;;
12756;SDS011;31601;48.042;12.240;2023-04-03T07:55:37;9.73;;;6.27;;
12756;SDS011;31601;48.042;12.240;2023-04-03T07:58:07;6.90;;;5.50;;
12756;SDS011;31601;48.042;12.240;2023-04-03T08:00:34;8.23;;;5.33;;
12756;SDS011;31601;48.042;12.240;2023-04-03T08:03:01;6.80;;;4.47;;
12756;SDS011;31601;48.042;12.240;2023-04-03T08:05:27;5.43;;;4.50;;
12756;SDS011;31601;48.042;12.240;2023-04-03T08:07:55;7.07;;;4.00;;
12756;SDS011;31601;48.042;12.240;2023-04-03T08:10:21;6.90;;;4.60;;
12756;SDS011;31601;48.042;12.240;2023-04-03T08:12:48;4.40;;;4.00;;
12756;SDS011;31601;48.042;12.240;2023-04-03T08:15:15;4.63;;;3.70;;
12756;SDS011;31601;48.042;12.240;2023-04-03T08:17:41;6.40;;;4.63;;
12756;SDS011;31601;48.042;12.240;2023-04-03T08:20:09;5.77;;;4.00;;
12756;SDS011;31601;48.042;12.240;2023-04-03T08:22:36;7.90;;;4.80;;
12756;SDS011;31601;48.042;12.240;2023-04-03T08:25:05;10.17;;;4.67;;
12756;SDS011;31601;48.042;12.240;2023-04-03T08:27:31;5.33;;;3.97;;
12756;SDS011;31601;48.042;12.240;2023-04-03T08:29:58;5.87;;;3.97;;
12756;SDS011;31601;48.042;12.240;2023-04-03T08:32:24;5.93;;;4.17;;
12756;SDS011;31601;48.042;12.240;2023-04-03T08:34:52;5.53;;;3.87;;
12756;SDS011;31601;48.042;12.240;2023-04-03T08:37:18;4.93;;;3.90;;
12756;SDS011;31601;48.042;12.240;2023-04-03T08:39:45;4.47;;;3.63;;
12756;SDS011;31601;48.042;12.240;2023-04-03T08:42:16;7.13;;;4.03;;
12756;SDS011;31601;48.042;12.240;2023-04-03T08:44:52;5.30;;;3.50;;
12756;SDS011;31601;48.042;12.240;2023-04-03T08:47:26;4.83;;;3.50;;
12756;SDS011;31601;48.042;12.240;2023-04-03T08:50:02;3.80;;;3.43;;
12756;SDS011;31601;48.042;12.240;2023-04-03T08:52:34;4.27;;;3.83;;
12756;SDS011;31601;48.042;12.240;2023-04-03T08:55:04;5.23;;;3.40;;
12756;SDS011;31601;48.042;12.240;2023-04-03T08:57:35;3.73;;;3.33;;
12756;SDS011;31601;48.042;12.240;2023-04-03T09:00:10;5.03;;;3.40;;
12756;SDS011;31601;48.042;12.240;2023-04-03T09:02:43;3.70;;;3.30;;
12756;SDS011;31601;48.042;12.240;2023-04-03T09:05:13;4.70;;;3.60;;
12756;SDS011;31601;48.042;12.240;2023-04-03T09:07:42;5.43;;;3.43;;
12756;SDS011;31601;48.042;12.240;2023-04-03T09:10:12;4.63;;;4.00;;
12756;SDS011;31601;48.042;12.240;2023-04-03T09:12:42;4.07;;;3.63;;
12756;SDS011;31601;48.042;12.240;2023-04-03T09:15:16;3.93;;;3.43;;
12756;SDS011;31601;48.042;12.240;2023-04-03T09:17:48;3.87;;;3.20;;
12756;SDS011;31601;48.042;12.240;2023-04-03T09:20:25;5.20;;;3.50;;
12756;SDS011;31601;48.042;12.240;2023-04-03T09:23:02;4.13;;;3.73;;
12756;SDS011;31601;48.042;12.240;2023-04-03T09:25:39;3.73;;;3.20;;
12756;SDS011;31601;48.042;12.240;2023-04-03T09:28:07;5.30;;;4.00;;
12756;SDS011;31601;48.042;12.240;2023-04-03T09:30:35;19.33;;;12.07;;
12756;SDS011;31601;48.042;12.240;2023-04-03T09:33:03;6.40;;;4.53;;
12756;SDS011;31601;48.042;12.240;2023-04-03T09:35:31;5.80;;;3.50;;
12756;SDS011;31601;48.042;12.240;2023-04-03T09:37:59;8.00;;;3.80;;
12756;SDS011;31601;48.042;12.240;2023-04-03T09:40:30;6.17;;;3.30;;
12756;SDS011;31601;48.042;12.240;2023-04-03T09:43:00;11.03;;;8.70;;
12756;SDS011;31601;48.042;12.240;2023-04-03T09:45:30;5.73;;;3.97;;
12756;SDS011;31601;48.042;12.240;2023-04-03T09:48:05;4.03;;;3.37;;
12756;SDS011;31601;48.042;12.240;2023-04-03T09:50:33;5.17;;;3.80;;
12756;SDS011;31601;48.042;12.240;2023-04-03T09:53:04;15.23;;;6.37;;
12756;SDS011;31601;48.042;12.240;2023-04-03T09:55:31;6.43;;;4.77;;
12756;SDS011;31601;48.042;12.240;2023-04-03T09:57:59;10.27;;;5.97;;
12756;SDS011;31601;48.042;12.240;2023-04-03T10:00:28;5.87;;;5.03;;
12756;SDS011;31601;48.042;12.240;2023-04-03T10:03:00;4.67;;;3.60;;
12756;SDS011;31601;48.042;12.240;2023-04-03T10:05:32;5.23;;;4.70;;
12756;SDS011;31601;48.042;12.240;2023-04-03T10:10:49;4.43;;;3.30;;
12756;SDS011;31601;48.042;12.240;2023-04-03T10:13:33;5.57;;;4.03;;
12756;SDS011;31601;48.042;12.240;2023-04-03T10:16:03;4.80;;;2.93;;
12756;SDS011;31601;48.042;12.240;2023-04-03T10:18:37;4.33;;;3.30;;
12756;SDS011;31601;48.042;12.240;2023-04-03T10:21:09;5.80;;;4.17;;
12756;SDS011;31601;48.042;12.240;2023-04-03T10:23:42;3.93;;;3.40;;
12756;SDS011;31601;48.042;12.240;2023-04-03T10:26:12;5.33;;;3.57;;
12756;SDS011;31601;48.042;12.240;2023-04-03T10:29:01;9.20;;;3.83;;
12756;SDS011;31601;48.042;12.240;2023-04-03T10:31:36;4.93;;;3.23;;
12756;SDS011;31601;48.042;12.240;2023-04-03T10:34:10;3.27;;;2.97;;
12756;SDS011;31601;48.042;12.240;2023-04-03T10:36:48;3.17;;;2.67;;
12756;SDS011;31601;48.042;12.240;2023-04-03T10:39:21;4.63;;;3.13;;
12756;SDS011;31601;48.042;12.240;2023-04-03T10:41:56;3.93;;;3.43;;
12756;SDS011;31601;48.042;12.240;2023-04-03T10:44:31;4.17;;;3.30;;
12756;SDS011;31601;48.042;12.240;2023-04-03T10:47:10;3.30;;;2.80;;
12756;SDS011;31601;48.042;12.240;2023-04-03T10:49:46;3.53;;;3.00;;
12756;SDS011;31601;48.042;12.240;2023-04-03T10:52:20;3.20;;;2.60;;
12756;SDS011;31601;48.042;12.240;2023-04-03T10:54:54;4.30;;;3.73;;
12756;SDS011;31601;48.042;12.240;2023-04-03T10:57:27;4.80;;;3.80;;
12756;SDS011;31601;48.042;12.240;2023-04-03T10:59:55;3.30;;;3.00;;
12756;SDS011;31601;48.042;12.240;2023-04-03T11:02:27;3.50;;;3.20;;
12756;SDS011;31601;48.042;12.240;2023-04-03T11:04:56;4.30;;;2.90;;
12756;SDS011;31601;48.042;12.240;2023-04-03T11:07:28;3.33;;;2.97;;
12756;SDS011;31601;48.042;12.240;2023-04-03T11:10:00;4.43;;;3.70;;
12756;SDS011;31601;48.042;12.240;2023-04-03T11:12:32;6.53;;;3.83;;
12756;SDS011;31601;48.042;12.240;2023-04-03T11:15:04;5.10;;;3.83;;
12756;SDS011;31601;48.042;12.240;2023-04-03T11:17:39;4.77;;;3.13;;
12756;SDS011;31601;48.042;12.240;2023-04-03T11:20:14;6.10;;;3.83;;
12756;SDS011;31601;48.042;12.240;2023-04-03T11:22:45;4.77;;;3.77;;
12756;SDS011;31601;48.042;12.240;2023-04-03T11:25:18;6.17;;;3.67;;
12756;SDS011;31601;48.042;12.240;2023-04-03T11:27:48;6.13;;;3.60;;
12756;SDS011;31601;48.042;12.240;2023-04-03T11:30:19;5.17;;;3.60;;
12756;SDS011;31601;48.042;12.240;2023-04-03T11:33:08;4.20;;;2.70;;
12756;SDS011;31601;48.042;12.240;2023-04-03T11:35:57;5.83;;;2.97;;
12756;SDS011;31601;48.042;12.240;2023-04-03T11:38:28;4.30;;;2.20;;
12756;SDS011;31601;48.042;12.240;2023-04-03T11:40:59;4.13;;;2.30;;
12756;SDS011;31601;48.042;12.240;2023-04-03T11:43:28;4.03;;;3.00;;
12756;SDS011;31601;48.042;12.240;2023-04-03T11:45:56;4.93;;;2.37;;
12756;SDS011;31601;48.042;12.240;2023-04-03T12:09:23;4.27;;;3.30;;
12756;SDS011;31601;48.042;12.240;2023-04-03T12:11:52;5.07;;;2.80;;
12756;SDS011;31601;48.042;12.240;2023-04-03T12:14:19;5.60;;;2.80;;
12756;SDS011;31601;48.042;12.240;2023-04-03T12:16:49;4.77;;;3.03;;
12756;SDS011;31601;48.042;12.240;2023-04-03T12:19:30;3.03;;;2.67;;
12756;SDS011;31601;48.042;12.240;2023-04-03T12:24:51;7.03;;;2.40;;
12756;SDS011;31601;48.042;12.240;2023-04-03T12:27:26;3.37;;;2.00;;
12756;SDS011;31601;48.042;12.240;2023-04-03T12:29:56;2.73;;;1.60;;
12756;SDS011;31601;48.042;12.240;2023-04-03T12:32:36;6.30;;;2.57;;
12756;SDS011;31601;48.042;12.240;2023-04-03T12:35:17;5.27;;;2.93;;
12756;SDS011;31601;48.042;12.240;2023-04-03T12:37:52;2.67;;;1.60;;
12756;SDS011;31601;48.042;12.240;2023-04-03T12:40:41;2.33;;;1.77;;
12756;SDS011;31601;48.042;12.240;2023-04-03T12:43:17;4.07;;;1.70;;
12756;SDS011;31601;48.042;12.240;2023-04-03T12:45:56;3.93;;;2.20;;
12756;SDS011;31601;48.042;12.240;2023-04-03T12:48:28;3.43;;;1.80;;
12756;SDS011;31601;48.042;12.240;2023-04-03T12:50:57;5.57;;;2.03;;
12756;SDS011;31601;48.042;12.240;2023-04-03T12:53:25;2.63;;;1.90;;
12756;SDS011;31601;48.042;12.240;2023-04-03T12:55:57;1.90;;;1.60;;
12756;SDS011;31601;48.042;12.240;2023-04-03T12:58:43;3.37;;;1.70;;
12756;SDS011;31601;48.042;12.240;2023-04-03T13:01:11;2.77;;;1.87;;
12756;SDS011;31601;48.042;12.240;2023-04-03T13:03:43;2.63;;;2.07;;
12756;SDS011;31601;48.042;12.240;2023-04-03T13:06:14;3.83;;;2.57;;
12756;SDS011;31601;48.042;12.240;2023-04-03T13:08:48;3.93;;;2.73;;
12756;SDS011;31601;48.042;12.240;2023-04-03T13:11:17;4.37;;;3.20;;
12756;SDS011;31601;48.042;12.240;2023-04-03T13:13:56;7.30;;;3.30;;
12756;SDS011;31601;48.042;12.240;2023-04-03T13:16:23;4.30;;;2.50;;
12756;SDS011;31601;48.042;12.240;2023-04-03T13:18:51;3.23;;;2.73;;
12756;SDS011;31601;48.042;12.240;2023-04-03T13:21:19;5.70;;;3.10;;
12756;SDS011;31601;48.042;12.240;2023-04-03T13:23:49;3.93;;;2.90;;
12756;SDS011;31601;48.042;12.240;2023-04-03T13:26:20;5.40;;;3.37;;
12756;SDS011;31601;48.042;12.240;2023-04-03T13:28:49;2.57;;;1.60;;
12756;SDS011;31601;48.042;12.240;2023-04-03T13:31:18;4.53;;;1.83;;
12756;SDS011;31601;48.042;12.240;2023-04-03T13:33:56;4.57;;;2.53;;
12756;SDS011;31601;48.042;12.240;2023-04-03T13:36:26;2.03;;;1.70;;
12756;SDS011;31601;48.042;12.240;2023-04-03T13:38:59;3.80;;;1.80;;
12756;SDS011;31601;48.042;12.240;2023-04-03T13:41:32;3.03;;;1.87;;
12756;SDS011;31601;48.042;12.240;2023-04-03T13:44:17;3.00;;;2.10;;
12756;SDS011;31601;48.042;12.240;2023-04-03T13:46:52;3.07;;;1.70;;
12756;SDS011;31601;48.042;12.240;2023-04-03T13:49:20;2.13;;;1.33;;
12756;SDS011;31601;48.042;12.240;2023-04-03T13:51:48;3.80;;;1.70;;
12756;SDS011;31601;48.042;12.240;2023-04-03T13:54:19;5.13;;;1.47;;
12756;SDS011;31601;48.042;12.240;2023-04-03T13:56:52;2.07;;;1.77;;
12756;SDS011;31601;48.042;12.240;2023-04-03T13:59:21;4.67;;;2.73;;
12756;SDS011;31601;48.042;12.240;2023-04-03T14:01:51;5.40;;;2.60;;
12756;SDS011;31601;48.042;12.240;2023-04-03T14:04:20;3.20;;;1.90;;
12756;SDS011;31601;48.042;12.240;2023-04-03T14:06:48;3.30;;;1.33;;
12756;SDS011;31601;48.042;12.240;2023-04-03T14:09:16;2.50;;;1.70;;
12756;SDS011;31601;48.042;12.240;2023-04-03T14:11:43;4.17;;;1.67;;
12756;SDS011;31601;48.042;12.240;2023-04-03T14:14:14;4.10;;;1.90;;
12756;SDS011;31601;48.042;12.240;2023-04-03T14:16:43;3.50;;;1.63;;
12756;SDS011;31601;48.042;12.240;2023-04-03T14:19:14;3.37;;;2.33;;
12756;SDS011;31601;48.042;12.240;2023-04-03T14:21:45;3.57;;;2.40;;
12756;SDS011;31601;48.042;12.240;2023-04-03T14:24:11;3.13;;;2.07;;
12756;SDS011;31601;48.042;12.240;2023-04-03T14:26:38;6.10;;;2.87;;
12756;SDS011;31601;48.042;12.240;2023-04-03T14:29:04;4.50;;;2.23;;
12756;SDS011;31601;48.042;12.240;2023-04-03T14:31:32;3.57;;;1.70;;
12756;SDS011;31601;48.042;12.240;2023-04-03T14:33:58;2.13;;;1.20;;
12756;SDS011;31601;48.042;12.240;2023-04-03T14:36:25;2.77;;;1.43;;
12756;SDS011;31601;48.042;12.240;2023-04-03T14:38:53;5.13;;;1.50;;
12756;SDS011;31601;48.042;12.240;2023-04-03T14:41:22;2.57;;;1.17;;
12756;SDS011;31601;48.042;12.240;2023-04-03T14:43:50;3.33;;;1.33;;
12756;SDS011;31601;48.042;12.240;2023-04-03T14:46:18;2.23;;;1.40;;
12756;SDS011;31601;48.042;12.240;2023-04-03T14:48:49;19.23;;;10.50;;
12756;SDS011;31601;48.042;12.240;2023-04-03T14:51:15;11.33;;;6.53;;
12756;SDS011;31601;48.042;12.240;2023-04-03T14:53:42;99.83;;;40.43;;
12756;SDS011;31601;48.042;12.240;2023-04-03T14:56:11;35.30;;;16.03;;
12756;SDS011;31601;48.042;12.240;2023-04-03T14:58:38;26.27;;;11.93;;
12756;SDS011;31601;48.042;12.240;2023-04-03T15:01:05;63.13;;;26.87;;
12756;SDS011;31601;48.042;12.240;2023-04-03T15:03:31;36.90;;;15.73;;
12756;SDS011;31601;48.042;12.240;2023-04-03T15:05:59;60.63;;;24.10;;
12756;SDS011;31601;48.042;12.240;2023-04-03T15:08:26;21.53;;;10.23;;